Time;durP1;ratioP1;P1;durP2;ratioP2;P2;SDS_P1;SDS_P2;PMS_P1;PMS_P2;Temp;Humidity;BMP_temperature;BMP_pressure;BME280_temperature;BME280_humidity;BME280_pressure;Samples;Min_cycle;Max_cycle;Signal;HPM_P1;HPM_P2
2023/03/20 13:53:15;;;;;;;0.20;0.00;;;21.80;99.90;;;;;;21227135;27;20926;-66
2023/03/20 14:03:24;;;;;;;0.20;0.00;;;22.50;99.90;;;;;;21223717;27;20399;-67
2023/03/20 14:13:32;;;;;;;0.20;0.00;;;22.90;99.90;;;;;;21240811;27;20432;-67
2023/03/20 14:23:38;;;;;;;0.20;0.00;;;21.90;99.90;;;;;;21255696;27;20451;-65
2023/03/20 14:33:53;;;;;;;0.20;0.00;;;22.90;99.90;;;;;;21261884;27;20427;-68
2023/03/20 14:44:15;;;;;;;0.20;0.00;;;23.00;99.90;;;;;;21277818;27;20452;-68
2023/03/20 14:54:28;;;;;;;0.20;0.00;;;23.00;99.90;;;;;;21320735;27;20399;-67
2023/03/20 15:04:37;;;;;;;0.20;0.00;;;22.80;99.90;;;;;;21299393;27;20383;-67
2023/03/20 15:14:47;;;;;;;0.20;0.00;;;24.60;99.90;;;;;;21148133;28;20531;-66
2023/03/20 15:24:55;;;;;;;0.20;0.10;;;23.10;99.90;;;;;;21146894;28;20501;-65
2023/03/20 15:35:04;;;;;;;0.20;0.00;;;22.40;99.90;;;;;;21145455;28;20429;-68
2023/03/20 15:45:23;;;;;;;0.20;0.10;;;21.30;99.90;;;;;;21142896;28;20390;-65
2023/03/20 15:55:29;;;;;;;0.20;0.00;;;19.90;99.90;;;;;;21181529;27;20500;-64
2023/03/20 16:05:33;;;;;;;0.20;0.00;;;21.70;99.90;;;;;;21283799;27;20407;-67
2023/03/20 16:15:39;;;;;;;0.20;0.00;;;21.50;99.90;;;;;;21299417;27;20416;-70
2023/03/20 16:25:43;;;;;;;0.20;0.10;;;20.50;99.90;;;;;;21225748;27;20438;-67
2023/03/20 16:35:50;;;;;;;0.20;0.10;;;19.30;99.90;;;;;;21212483;27;20402;-68
2023/03/20 16:45:55;;;;;;;0.20;0.10;;;18.60;99.90;;;;;;21120709;28;20473;-68
2023/03/20 16:56:04;;;;;;;0.20;0.10;;;18.30;99.90;;;;;;21138784;28;20474;-67
2023/03/20 17:06:25;;;;;;;0.20;0.10;;;17.80;99.90;;;;;;21121740;28;20742;-69
2023/03/20 17:16:33;;;;;;;0.20;0.10;;;17.70;99.90;;;;;;21120386;28;20745;-69
2023/03/20 17:26:37;;;;;;;0.20;0.10;;;17.30;99.90;;;;;;21123272;28;20402;-68
2023/03/20 17:36:42;;;;;;;0.20;0.00;;;16.80;99.90;;;;;;21134938;28;20398;-69
2023/03/20 17:46:46;;;;;;;0.20;0.10;;;16.60;99.90;;;;;;21151651;28;20410;-70
2023/03/20 17:57:02;;;;;;;0.20;0.10;;;16.10;99.90;;;;;;21116216;28;20436;-75
2023/03/20 18:07:06;;;;;;;0.20;0.20;;;16.20;99.90;;;;;;21133253;28;20387;-69
2023/03/20 18:17:12;;;;;;;0.20;0.10;;;15.80;99.90;;;;;;21149867;28;20407;-69
2023/03/20 18:27:16;;;;;;;0.20;0.20;;;15.60;99.90;;;;;;21134802;27;20399;-68
2023/03/20 18:37:21;;;;;;;0.20;0.10;;;15.50;99.90;;;;;;21230910;27;20393;-71
2023/03/20 18:47:25;;;;;;;0.20;0.00;;;15.30;99.90;;;;;;21263964;27;20402;-69
2023/03/20 18:57:31;;;;;;;0.20;0.10;;;15.10;99.90;;;;;;21299991;27;20523;-68
2023/03/20 19:07:35;;;;;;;0.20;0.10;;;15.20;99.90;;;;;;21244391;27;20406;-69
2023/03/20 19:17:40;;;;;;;0.20;0.00;;;15.30;99.90;;;;;;21146325;28;20402;-69
2023/03/20 19:27:44;;;;;;;0.20;0.10;;;15.00;99.90;;;;;;21110723;28;20473;-69
2023/03/20 19:37:50;;;;;;;0.20;0.10;;;14.90;99.90;;;;;;21126766;28;20426;-70
2023/03/20 19:47:54;;;;;;;0.20;0.10;;;14.90;99.90;;;;;;21123938;28;20493;-69
2023/03/20 19:58:00;;;;;;;0.20;0.10;;;14.90;99.90;;;;;;21156662;27;20399;-69
2023/03/20 20:08:06;;;;;;;0.20;0.10;;;14.70;99.90;;;;;;21228330;27;20495;-69
2023/03/20 20:18:31;;;;;;;0.20;0.10;;;14.70;99.90;;;;;;21294031;27;20403;-69
2023/03/20 20:28:35;;;;;;;0.20;0.10;;;14.10;99.90;;;;;;21311356;27;20421;-68
2023/03/20 20:38:40;;;;;;;0.20;0.10;;;14.00;99.90;;;;;;21224883;27;20486;-70
2023/03/20 20:48:54;;;;;;;0.20;0.10;;;13.90;99.90;;;;;;21144958;28;20398;-70
2023/03/20 20:58:59;;;;;;;0.20;0.10;;;13.80;99.90;;;;;;21127118;28;20482;-69
2023/03/20 21:09:04;;;;;;;0.20;0.10;;;13.70;99.90;;;;;;21142475;27;20411;-69
2023/03/20 21:19:09;;;;;;;0.20;0.10;;;13.80;99.90;;;;;;21145149;27;21196;-68
2023/03/20 21:29:13;;;;;;;0.20;0.00;;;13.90;99.90;;;;;;21159139;28;20418;-70
2023/03/20 21:39:19;;;;;;;0.20;0.10;;;14.60;99.90;;;;;;21201882;27;20479;-70
2023/03/20 21:49:23;;;;;;;0.20;0.10;;;14.90;99.90;;;;;;21244654;27;20923;-69
2023/03/20 21:59:52;;;;;;;0.20;0.10;;;15.10;99.90;;;;;;21225422;27;20446;-70
2023/03/20 22:10:17;;;;;;;0.20;0.10;;;14.90;99.90;;;;;;21224894;27;20421;-70
2023/03/20 22:20:42;;;;;;;0.20;0.10;;;15.00;99.90;;;;;;21243163;27;20428;-70
2023/03/20 22:31:10;;;;;;;0.20;0.03;;;14.80;99.90;;;;;;21242173;27;20456;-70
2023/03/20 22:41:36;;;;;;;0.20;0.10;;;15.10;99.90;;;;;;21240998;27;20389;-69
2023/03/20 22:51:59;;;;;;;0.20;0.10;;;15.10;99.90;;;;;;21305010;27;20451;-69
2023/03/20 23:02:25;;;;;;;0.20;0.10;;;15.00;99.90;;;;;;21325763;27;20984;-69
2023/03/20 23:12:29;;;;;;;0.20;0.10;;;14.40;99.90;;;;;;21187503;27;20406;-69
2023/03/20 23:22:34;;;;;;;0.20;0.10;;;14.10;99.90;;;;;;21153541;28;20482;-69
2023/03/20 23:32:38;;;;;;;0.20;0.10;;;13.90;99.90;;;;;;21134661;28;20472;-70
2023/03/20 23:42:44;;;;;;;0.20;0.10;;;14.00;99.90;;;;;;21133389;28;21107;-70
2023/03/20 23:52:48;;;;;;;0.20;0.10;;;13.50;99.90;;;;;;21065299;28;20434;-69
